createdAt,value
2023-03-31T00:01:08.080Z,53.44
2023-03-31T00:03:38.942Z,52.99
2023-03-31T00:06:06.332Z,52.78
2023-03-31T00:08:38.111Z,52.81
2023-03-31T00:11:10.087Z,52.67
2023-03-31T00:13:37.159Z,52.25
2023-03-31T00:16:07.950Z,51.91
2023-03-31T00:18:35.925Z,51.80
2023-03-31T00:21:25.110Z,52.64
2023-03-31T00:23:58.436Z,52.46
2023-03-31T00:26:26.631Z,53.45
2023-03-31T00:28:54.145Z,53.05
2023-03-31T00:31:22.256Z,53.05
2023-03-31T00:33:50.572Z,52.51
2023-03-31T00:36:43.823Z,52.97
2023-03-31T00:39:11.288Z,52.25
2023-03-31T00:41:40.601Z,52.06
2023-03-31T00:44:23.303Z,52.06
2023-03-31T00:47:18.048Z,52.69
2023-03-31T00:49:53.388Z,52.21
2023-03-31T00:52:23.912Z,52.44
2023-03-31T00:55:05.731Z,52.20
2023-03-31T00:57:39.370Z,52.83
2023-03-31T01:00:19.491Z,52.81
2023-03-31T01:02:56.255Z,52.35
2023-03-31T01:05:27.721Z,52.14
2023-03-31T01:07:56.312Z,52.32
2023-03-31T01:10:23.388Z,51.29
2023-03-31T01:12:54.489Z,51.81
2023-03-31T01:15:22.253Z,53.27
2023-03-31T01:17:53.531Z,53.20
2023-03-31T01:20:33.126Z,53.08
2023-03-31T01:23:32.460Z,53.28
2023-03-31T01:26:27.898Z,51.72
2023-03-31T01:29:01.623Z,51.98
2023-03-31T01:32:02.462Z,52.11
2023-03-31T01:34:54.201Z,52.45
2023-03-31T01:37:47.915Z,52.08
2023-03-31T01:40:14.638Z,52.90
2023-03-31T01:43:05.148Z,52.44
2023-03-31T01:45:40.872Z,52.28
2023-03-31T01:48:18.989Z,52.82
2023-03-31T01:50:57.120Z,52.18
2023-03-31T01:53:31.052Z,52.31
2023-03-31T01:56:18.358Z,53.14
2023-03-31T01:58:55.497Z,52.13
2023-03-31T02:01:31.826Z,52.99
2023-03-31T02:04:09.870Z,53.21
2023-03-31T02:06:41.039Z,52.63
2023-03-31T02:09:16.778Z,52.99
2023-03-31T02:11:45.708Z,53.78
2023-03-31T02:14:19.228Z,53.69
2023-03-31T02:16:50.350Z,53.12
2023-03-31T02:19:20.946Z,54.05
2023-03-31T02:21:49.948Z,56.23
2023-03-31T02:24:20.096Z,57.74
2023-03-31T02:27:01.315Z,56.69
2023-03-31T02:29:28.498Z,58.82
2023-03-31T02:32:19.895Z,58.46
2023-03-31T02:34:47.096Z,59.60
2023-03-31T02:37:14.642Z,61.20
2023-03-31T02:39:46.282Z,64.52
2023-03-31T02:42:14.344Z,65.73
2023-03-31T02:44:41.162Z,66.38
2023-03-31T02:47:11.657Z,67.20
2023-03-31T02:49:42.709Z,69.57
2023-03-31T02:52:12.881Z,71.21
2023-03-31T02:55:02.188Z,74.57
2023-03-31T02:57:50.827Z,77.44
2023-03-31T03:00:53.393Z,80.95
2023-03-31T03:03:32.497Z,81.96
2023-03-31T03:06:27.941Z,81.15
2023-03-31T03:09:19.295Z,83.53
2023-03-31T03:11:54.620Z,85.80
2023-03-31T03:14:36.310Z,87.01
2023-03-31T03:17:10.333Z,89.93
2023-03-31T03:19:37.867Z,90.08
2023-03-31T03:22:06.391Z,88.53
2023-03-31T03:24:36.678Z,87.02
2023-03-31T03:27:04.162Z,84.96
2023-03-31T03:29:31.011Z,84.90
2023-03-31T03:31:58.160Z,86.17
2023-03-31T03:34:26.002Z,86.53
2023-03-31T03:36:52.766Z,86.40
2023-03-31T03:39:19.471Z,88.97
2023-03-31T03:41:47.230Z,87.25
2023-03-31T03:44:14.237Z,88.72
2023-03-31T03:46:41.089Z,88.26
2023-03-31T03:49:08.201Z,83.54
2023-03-31T03:51:35.858Z,85.99
2023-03-31T03:54:05.993Z,82.63
2023-03-31T03:56:33.345Z,84.04
2023-03-31T03:59:00.603Z,84.04
2023-03-31T04:01:27.440Z,84.46
2023-03-31T04:03:54.431Z,87.83
2023-03-31T04:06:21.424Z,91.18
2023-03-31T04:08:56.104Z,92.99
2023-03-31T04:11:23.378Z,94.89
2023-03-31T04:13:50.334Z,93.15
2023-03-31T04:16:20.272Z,90.70
2023-03-31T04:18:49.004Z,91.05
2023-03-31T04:21:24.039Z,92.07
2023-03-31T04:24:04.734Z,91.50
2023-03-31T04:26:44.797Z,90.85
2023-03-31T04:29:13.283Z,92.19
2023-03-31T04:31:43.171Z,94.85
2023-03-31T04:34:15.485Z,92.48
2023-03-31T04:36:47.897Z,92.01
2023-03-31T04:39:27.219Z,95.13
2023-03-31T04:41:54.527Z,96.17
2023-03-31T04:44:21.325Z,94.80
2023-03-31T04:46:48.188Z,95.33
2023-03-31T04:49:15.483Z,97.27
2023-03-31T04:51:42.273Z,96.63
2023-03-31T04:54:09.513Z,94.20
2023-03-31T04:56:36.362Z,94.89
2023-03-31T04:59:04.335Z,96.15
2023-03-31T05:01:36.750Z,95.90
2023-03-31T05:04:11.783Z,100.00
2023-03-31T05:07:21.544Z,98.96
2023-03-31T05:09:57.866Z,87.18
2023-03-31T05:12:26.000Z,88.05
2023-03-31T05:14:57.226Z,91.64
2023-03-31T05:17:25.991Z,92.88
2023-03-31T05:19:56.122Z,95.14
2023-03-31T05:22:25.888Z,97.78
2023-03-31T05:24:54.326Z,97.88
2023-03-31T05:27:35.206Z,99.41
2023-03-31T05:30:10.828Z,96.18
2023-03-31T05:32:37.781Z,94.87
2023-03-31T05:35:05.528Z,93.61
2023-03-31T05:37:32.878Z,91.62
2023-03-31T05:40:01.134Z,91.81
2023-03-31T05:42:28.338Z,91.70
2023-03-31T05:44:55.382Z,91.01
2023-03-31T05:47:23.639Z,88.14
2023-03-31T05:49:53.548Z,85.34
2023-03-31T05:52:20.678Z,84.63
2023-03-31T05:54:52.719Z,84.17
2023-03-31T05:57:29.553Z,81.71
2023-03-31T06:00:02.625Z,78.97
2023-03-31T06:02:34.061Z,80.78
2023-03-31T06:05:05.086Z,76.37
2023-03-31T06:07:32.226Z,73.48
2023-03-31T06:10:07.752Z,69.02
2023-03-31T06:12:40.233Z,69.50
2023-03-31T06:17:56.661Z,59.30
2023-03-31T06:20:28.210Z,57.16
2023-03-31T06:22:55.975Z,57.98
2023-03-31T06:25:25.583Z,56.37
2023-03-31T06:27:53.511Z,57.76
2023-03-31T06:30:20.550Z,61.56
2023-03-31T06:32:47.929Z,57.98
2023-03-31T06:35:15.608Z,58.26
2023-03-31T06:37:43.065Z,56.95
2023-03-31T06:40:12.549Z,58.73
2023-03-31T06:42:40.387Z,57.40
2023-03-31T06:45:10.967Z,58.42
2023-03-31T06:47:42.356Z,60.38
2023-03-31T06:50:10.220Z,59.52
2023-03-31T06:52:37.218Z,56.84
2023-03-31T06:55:04.731Z,55.55
2023-03-31T06:57:34.434Z,54.89
2023-03-31T07:00:02.202Z,51.99
2023-03-31T07:02:29.455Z,51.23
2023-03-31T07:05:02.670Z,49.74
2023-03-31T07:07:33.412Z,51.73
2023-03-31T07:10:00.811Z,51.34
2023-03-31T07:12:27.755Z,48.86
2023-03-31T07:14:54.998Z,50.29
2023-03-31T07:17:26.806Z,51.27
2023-03-31T07:19:56.316Z,49.16
2023-03-31T07:22:23.376Z,47.94
2023-03-31T07:24:50.227Z,46.70
2023-03-31T07:27:17.449Z,46.96
2023-03-31T07:30:03.922Z,46.16
2023-03-31T07:35:16.047Z,45.59
2023-03-31T07:37:51.101Z,44.97
2023-03-31T07:40:27.263Z,45.52
2023-03-31T07:42:55.566Z,45.34
2023-03-31T07:45:26.302Z,45.21
2023-03-31T07:47:54.051Z,44.52
2023-03-31T07:50:29.466Z,44.76
2023-03-31T07:53:04.044Z,42.68
2023-03-31T07:55:33.342Z,42.23
2023-03-31T07:58:00.167Z,42.52
2023-03-31T08:00:27.469Z,42.58
2023-03-31T08:03:22.300Z,43.55
2023-03-31T08:05:52.696Z,42.35
2023-03-31T08:08:24.946Z,43.82
2023-03-31T08:10:52.456Z,44.17
2023-03-31T08:13:19.622Z,42.16
2023-03-31T08:15:47.125Z,43.64
2023-03-31T08:18:14.463Z,41.63
2023-03-31T08:20:41.312Z,41.75
2023-03-31T08:23:12.103Z,42.23
2023-03-31T08:25:39.175Z,42.37
2023-03-31T08:28:17.742Z,41.53
2023-03-31T08:30:47.970Z,40.87
2023-03-31T08:33:23.644Z,38.30
2023-03-31T08:35:57.563Z,39.11
2023-03-31T08:38:28.929Z,37.42
2023-03-31T08:41:06.092Z,38.14
2023-03-31T08:43:39.570Z,37.79
2023-03-31T08:46:25.604Z,37.22
2023-03-31T08:48:56.413Z,37.51
2023-03-31T08:51:28.656Z,38.19
2023-03-31T08:54:03.999Z,38.59
2023-03-31T08:56:42.969Z,38.40
2023-03-31T08:59:39.626Z,38.22
2023-03-31T09:02:33.009Z,38.15
2023-03-31T09:05:19.115Z,37.57
2023-03-31T09:08:43.475Z,38.99
2023-03-31T09:11:16.112Z,38.67
2023-03-31T09:14:16.823Z,36.51
2023-03-31T09:17:21.967Z,37.41
2023-03-31T09:19:57.066Z,38.00
2023-03-31T09:22:31.706Z,36.74
2023-03-31T09:25:10.803Z,37.67
2023-03-31T09:27:45.504Z,38.24
2023-03-31T09:30:23.580Z,36.66
2023-03-31T09:32:57.887Z,36.79
2023-03-31T09:35:27.563Z,36.35
2023-03-31T09:40:57.817Z,36.77
2023-03-31T09:43:35.247Z,36.35
2023-03-31T09:46:55.369Z,36.68
2023-03-31T09:49:26.491Z,35.33
2023-03-31T09:52:19.849Z,35.37
2023-03-31T09:55:38.414Z,35.93
2023-03-31T09:58:11.686Z,36.34
2023-03-31T10:00:53.334Z,34.99
2023-03-31T10:03:23.621Z,34.96
2023-03-31T10:05:53.123Z,35.08
2023-03-31T10:08:30.762Z,33.86
2023-03-31T10:11:09.663Z,34.12
2023-03-31T10:13:50.046Z,35.93
2023-03-31T10:16:32.640Z,35.46
2023-03-31T10:19:38.038Z,34.04
2023-03-31T10:22:20.884Z,33.55
2023-03-31T10:24:55.253Z,33.52
2023-03-31T10:27:30.502Z,33.57
2023-03-31T10:30:04.203Z,33.57
2023-03-31T10:32:33.330Z,32.93
2023-03-31T10:35:07.445Z,33.59
2023-03-31T10:37:37.957Z,32.46
2023-03-31T10:40:25.180Z,31.98
2023-03-31T10:43:03.583Z,31.81
2023-03-31T10:45:43.838Z,31.98
2023-03-31T10:48:31.583Z,31.68
2023-03-31T10:51:28.295Z,31.78
2023-03-31T10:54:00.702Z,31.98
2023-03-31T10:56:37.839Z,31.68
2023-03-31T10:59:32.631Z,31.03
2023-03-31T11:02:05.448Z,32.37
2023-03-31T11:04:38.804Z,32.55
2023-03-31T11:11:19.706Z,34.36
2023-03-31T11:13:59.481Z,33.50
2023-03-31T11:16:44.459Z,32.91
2023-03-31T11:19:33.318Z,32.82
2023-03-31T11:22:42.298Z,32.69
2023-03-31T11:25:49.529Z,32.59
2023-03-31T11:29:41.380Z,32.99
2023-03-31T11:32:46.595Z,32.47
2023-03-31T11:35:44.300Z,31.83
2023-03-31T11:38:44.759Z,32.55
2023-03-31T11:41:21.197Z,32.54
2023-03-31T11:43:58.626Z,32.19
2023-03-31T11:46:52.965Z,32.55
2023-03-31T11:53:22.785Z,31.82
2023-03-31T11:55:54.157Z,32.11
2023-03-31T11:58:45.396Z,31.33
2023-03-31T12:01:28.537Z,32.20
2023-03-31T12:04:14.282Z,32.03
2023-03-31T12:06:43.270Z,32.31
2023-03-31T12:09:20.815Z,31.63
2023-03-31T12:12:03.643Z,31.96
2023-03-31T12:14:37.224Z,31.65
2023-03-31T12:17:23.226Z,31.96
2023-03-31T12:20:07.677Z,32.48
2023-03-31T12:22:44.520Z,31.62
2023-03-31T12:25:16.906Z,32.54
2023-03-31T12:27:54.800Z,32.91
2023-03-31T12:30:48.846Z,32.65
2023-03-31T12:33:41.848Z,33.21
2023-03-31T12:36:40.100Z,33.46
2023-03-31T12:39:30.564Z,32.61
2023-03-31T12:42:21.822Z,31.86
2023-03-31T12:45:29.550Z,31.62
2023-03-31T12:48:29.367Z,32.26
2023-03-31T12:50:56.295Z,33.55
2023-03-31T12:53:38.911Z,32.54
2023-03-31T12:56:06.725Z,32.32
2023-03-31T12:58:43.779Z,32.75
2023-03-31T13:01:26.128Z,33.59
2023-03-31T13:04:24.534Z,33.84
2023-03-31T13:06:56.278Z,34.02
2023-03-31T13:09:40.399Z,33.84
2023-03-31T13:12:09.729Z,33.22
2023-03-31T13:14:42.656Z,33.30
2023-03-31T13:17:23.986Z,32.93
2023-03-31T13:19:56.892Z,32.98
2023-03-31T13:22:34.811Z,33.67
2023-03-31T13:25:43.031Z,32.97
2023-03-31T13:28:19.301Z,32.60
2023-03-31T13:30:52.055Z,32.43
2023-03-31T13:33:18.884Z,32.58
2023-03-31T13:35:50.432Z,32.42
2023-03-31T13:38:52.434Z,33.49
2023-03-31T13:50:14.877Z,32.68
2023-03-31T13:52:53.375Z,32.17
2023-03-31T13:55:55.614Z,32.12
2023-03-31T13:58:47.470Z,31.91
2023-03-31T14:04:39.599Z,31.86
2023-03-31T14:07:47.997Z,31.52
2023-03-31T14:10:45.761Z,31.43
2023-03-31T14:13:17.723Z,31.47
2023-03-31T14:15:54.135Z,30.96
2023-03-31T14:18:31.980Z,30.66
2023-03-31T14:21:22.308Z,30.78
2023-03-31T14:24:01.503Z,30.88
2023-03-31T14:27:19.144Z,31.12
2023-03-31T14:30:13.214Z,31.73
2023-03-31T14:33:14.457Z,30.57
2023-03-31T14:35:56.127Z,30.09
2023-03-31T14:38:24.384Z,29.39
2023-03-31T14:40:57.758Z,29.61
2023-03-31T14:43:29.172Z,29.83
2023-03-31T14:46:01.173Z,29.44
2023-03-31T14:48:45.685Z,29.12
2023-03-31T14:51:16.197Z,29.07
2023-03-31T14:53:47.070Z,29.57
2023-03-31T14:56:20.502Z,29.02
2023-03-31T14:58:51.125Z,29.59
2023-03-31T15:01:28.645Z,28.96
2023-03-31T15:03:59.485Z,30.15
2023-03-31T15:06:26.942Z,29.13
2023-03-31T15:08:58.337Z,28.78
2023-03-31T15:11:29.050Z,28.63
2023-03-31T15:14:05.162Z,29.12
2023-03-31T15:16:52.146Z,28.59
2023-03-31T15:19:31.814Z,28.92
2023-03-31T15:22:02.386Z,28.70
2023-03-31T15:24:30.241Z,32.99
2023-03-31T15:27:10.950Z,28.20
2023-03-31T15:29:43.349Z,28.99
2023-03-31T15:32:23.135Z,29.57
2023-03-31T15:38:10.808Z,29.29
2023-03-31T15:40:46.439Z,30.71
2023-03-31T15:43:33.139Z,29.20
2023-03-31T15:46:01.509Z,29.02
2023-03-31T15:48:34.702Z,28.60
2023-03-31T15:51:13.545Z,28.92
2023-03-31T15:53:52.871Z,29.80
2023-03-31T15:56:33.519Z,29.13
2023-03-31T15:59:05.212Z,29.33
2023-03-31T16:01:44.236Z,29.98
2023-03-31T16:04:33.614Z,29.89
2023-03-31T16:08:09.641Z,30.14
2023-03-31T16:10:37.003Z,30.62
2023-03-31T16:13:27.315Z,30.63
2023-03-31T16:15:56.662Z,30.56
2023-03-31T16:18:36.331Z,31.30
2023-03-31T16:21:07.847Z,31.26
2023-03-31T16:24:40.340Z,31.73
2023-03-31T16:27:22.843Z,32.10
2023-03-31T16:29:49.998Z,32.07
2023-03-31T16:38:57.944Z,32.90
2023-03-31T16:51:02.185Z,33.79
2023-03-31T16:53:42.202Z,35.52
2023-03-31T16:56:12.911Z,35.83
2023-03-31T17:10:16.401Z,37.09
2023-03-31T17:12:43.586Z,36.94
2023-03-31T17:15:11.532Z,36.93
2023-03-31T17:17:39.802Z,36.73
2023-03-31T17:20:08.789Z,37.03
2023-03-31T17:22:36.603Z,37.40
2023-03-31T17:25:04.832Z,37.35
2023-03-31T17:27:32.862Z,37.59
2023-03-31T17:29:59.681Z,37.82
2023-03-31T17:32:27.804Z,38.20
2023-03-31T17:34:54.809Z,38.54
2023-03-31T17:37:21.712Z,38.31
2023-03-31T17:39:48.658Z,39.22
2023-03-31T17:42:17.812Z,38.58
2023-03-31T17:44:46.837Z,39.11
2023-03-31T17:47:20.911Z,39.46
2023-03-31T17:49:49.069Z,39.34
2023-03-31T17:52:16.866Z,39.02
2023-03-31T17:54:43.648Z,38.85
2023-03-31T17:57:13.368Z,38.39
2023-03-31T17:59:40.686Z,38.85
2023-03-31T18:02:08.320Z,39.28
2023-03-31T18:04:37.113Z,39.21
2023-03-31T18:07:04.290Z,39.94
2023-03-31T18:09:31.513Z,39.46
2023-03-31T18:12:01.967Z,38.82
2023-03-31T18:14:28.808Z,39.21
2023-03-31T18:16:56.630Z,39.40
2023-03-31T18:19:24.846Z,39.27
2023-03-31T18:21:51.787Z,40.61
2023-03-31T18:24:20.338Z,40.55
2023-03-31T18:26:47.586Z,40.94
2023-03-31T18:29:14.763Z,40.66
2023-03-31T18:31:42.030Z,40.55
2023-03-31T18:34:09.458Z,41.51
2023-03-31T18:36:36.365Z,41.51
2023-03-31T18:39:04.449Z,41.11
2023-03-31T18:41:48.853Z,41.16
2023-03-31T18:44:18.355Z,41.42
2023-03-31T18:46:46.439Z,41.88
2023-03-31T18:52:06.789Z,41.32
2023-03-31T18:54:40.527Z,41.20
2023-03-31T18:57:13.219Z,40.84
2023-03-31T18:59:40.319Z,41.21
2023-03-31T19:02:07.716Z,41.65
2023-03-31T19:04:34.834Z,41.42
2023-03-31T19:07:02.075Z,41.90
2023-03-31T19:09:30.256Z,41.55
2023-03-31T19:12:12.304Z,41.18
2023-03-31T19:14:46.174Z,41.62
2023-03-31T19:17:13.508Z,41.81
2023-03-31T19:19:40.581Z,41.77
2023-03-31T19:24:59.964Z,42.16
2023-03-31T19:27:28.435Z,42.37
2023-03-31T19:30:00.020Z,42.42
2023-03-31T19:32:27.550Z,42.88
2023-03-31T19:34:55.298Z,42.24
2023-03-31T19:37:22.495Z,42.49
2023-03-31T19:39:49.496Z,42.42
2023-03-31T19:42:22.736Z,42.64
2023-03-31T19:44:49.943Z,42.53
2023-03-31T19:47:16.818Z,42.69
2023-03-31T19:49:43.928Z,42.34
2023-03-31T19:52:11.326Z,42.86
2023-03-31T19:54:38.124Z,43.06
2023-03-31T19:57:17.302Z,42.51
2023-03-31T19:59:44.806Z,42.41
2023-03-31T20:04:41.995Z,43.10
2023-03-31T20:07:16.189Z,43.24
2023-03-31T20:09:43.685Z,42.58
2023-03-31T20:12:11.109Z,43.38
2023-03-31T20:14:41.016Z,43.42
2023-03-31T20:17:10.831Z,43.82
2023-03-31T20:19:47.886Z,43.91
2023-03-31T20:22:15.296Z,43.99
2023-03-31T20:24:47.848Z,43.80
2023-03-31T20:27:14.818Z,43.56
2023-03-31T20:29:42.033Z,43.30
2023-03-31T20:32:12.044Z,43.45
2023-03-31T20:34:39.376Z,42.78
2023-03-31T20:37:06.419Z,42.76
2023-03-31T20:39:33.560Z,43.16
2023-03-31T20:42:00.673Z,42.99
2023-03-31T20:44:28.659Z,43.61
2023-03-31T20:46:56.719Z,43.24
2023-03-31T20:49:23.746Z,43.43
2023-03-31T20:51:51.273Z,44.05
2023-03-31T20:54:18.508Z,43.38
2023-03-31T20:57:08.863Z,44.42
2023-03-31T20:59:38.812Z,44.82
2023-03-31T21:02:06.364Z,45.44
2023-03-31T21:04:33.538Z,45.06
2023-03-31T21:07:01.255Z,45.20
2023-03-31T21:09:28.631Z,44.41
2023-03-31T21:11:55.846Z,44.89
2023-03-31T21:14:25.510Z,44.63
2023-03-31T21:16:55.067Z,45.13
2023-03-31T21:19:22.274Z,44.65
2023-03-31T21:21:49.318Z,44.89
2023-03-31T21:24:16.382Z,44.34
2023-03-31T21:26:53.142Z,44.39
2023-03-31T21:29:42.833Z,44.80
2023-03-31T21:32:15.312Z,45.55
2023-03-31T21:34:45.924Z,45.33
2023-03-31T21:37:19.995Z,46.36
2023-03-31T21:39:47.344Z,46.22
2023-03-31T21:42:14.658Z,46.62
2023-03-31T21:45:08.639Z,46.13
2023-03-31T21:47:36.646Z,45.57
2023-03-31T21:50:03.501Z,45.02
2023-03-31T21:52:30.334Z,45.19
2023-03-31T21:54:58.216Z,45.30
2023-03-31T21:57:25.245Z,45.85
2023-03-31T21:59:54.812Z,45.99
2023-03-31T22:02:23.562Z,46.18
2023-03-31T22:04:50.986Z,46.27
2023-03-31T22:07:18.276Z,46.03
2023-03-31T22:09:48.813Z,45.30
2023-03-31T22:12:15.745Z,45.56
2023-03-31T22:14:42.670Z,46.21
2023-03-31T22:17:10.268Z,45.97
2023-03-31T22:19:37.612Z,45.88
2023-03-31T22:22:04.828Z,45.91
2023-03-31T22:24:32.108Z,46.36
2023-03-31T22:26:59.139Z,46.26
2023-03-31T22:29:25.864Z,46.41
2023-03-31T22:31:53.126Z,45.88
2023-03-31T22:34:20.605Z,45.81
2023-03-31T22:36:47.616Z,45.73
2023-03-31T22:39:15.716Z,45.92
2023-03-31T22:41:43.502Z,45.41
2023-03-31T22:44:10.613Z,45.17
2023-03-31T22:46:39.374Z,45.57
2023-03-31T22:49:06.671Z,44.77
2023-03-31T22:51:34.788Z,44.91
2023-03-31T22:54:01.982Z,44.68
2023-03-31T22:56:29.087Z,44.86
2023-03-31T22:58:57.963Z,44.83
2023-03-31T23:01:25.129Z,45.53
2023-03-31T23:03:52.771Z,45.34
2023-03-31T23:06:19.498Z,45.15
2023-03-31T23:08:49.053Z,45.61
2023-03-31T23:11:18.907Z,45.00
2023-03-31T23:13:46.296Z,44.14
2023-03-31T23:16:19.806Z,43.87
2023-03-31T23:18:48.621Z,44.58
2023-03-31T23:25:41.601Z,45.30
2023-03-31T23:28:08.820Z,46.43
2023-03-31T23:30:36.258Z,45.27
2023-03-31T23:33:03.265Z,46.08
2023-03-31T23:35:30.368Z,46.36
2023-03-31T23:37:57.694Z,46.16
2023-03-31T23:40:24.917Z,46.79
2023-03-31T23:42:51.847Z,47.04
2023-03-31T23:45:19.357Z,47.28
2023-03-31T23:47:46.566Z,47.83
2023-03-31T23:50:13.924Z,47.84
2023-03-31T23:52:41.080Z,47.08
2023-03-31T23:55:08.356Z,46.72
2023-03-31T23:57:35.447Z,46.45
